Time;durP1;ratioP1;P1;durP2;ratioP2;P2;SDS_P1;SDS_P2;PMS_P1;PMS_P2;Temp;Humidity;BMP_temperature;BMP_pressure;BME280_temperature;BME280_humidity;BME280_pressure;Samples;Min_cycle;Max_cycle;Signal;HPM_P1;HPM_P2
2023/08/26 00:00:51;;;;;;;;;;;;;;;21.71;56.88;100847.25;4831773;29;120596;-77
2023/08/26 00:03:18;;;;;;;;;;;;;;;21.69;57.02;100849.25;4830875;29;119598;-77
2023/08/26 00:05:48;;;;;;;;;;;;;;;21.66;57.02;100833.34;4831105;29;123932;-77
2023/08/26 00:08:15;;;;;;;;;;;;;;;21.64;57.01;100813.78;4826307;29;124044;-77
2023/08/26 00:10:42;;;;;;;;;;;;;;;21.62;57.05;100821.16;4828327;29;120148;-77
2023/08/26 00:13:09;;;;;;;;;;;;;;;21.59;56.98;100822.31;4847096;29;119767;-77
2023/08/26 00:15:36;;;;;;;;;;;;;;;21.55;57.00;100821.72;4832488;29;124098;-77
2023/08/26 00:18:06;;;;;;;;;;;;;;;21.51;56.97;100831.09;4848319;29;123953;-77
2023/08/26 00:20:33;;;;;;;;;;;;;;;21.49;56.99;100826.81;4834713;29;120143;-77
2023/08/26 00:22:59;;;;;;;;;;;;;;;21.47;57.04;100840.41;4834683;29;118476;-77
2023/08/26 00:25:26;;;;;;;;;;;;;;;21.46;57.15;100844.13;4831602;29;124707;-77
2023/08/26 00:27:53;;;;;;;;;;;;;;;21.45;57.07;100842.41;4834150;29;124734;-77
2023/08/26 00:30:21;;;;;;;;;;;;;;;21.42;57.07;100837.28;4834757;29;118596;-77
2023/08/26 00:32:48;;;;;;;;;;;;;;;21.39;57.04;100837.56;4835900;29;118837;-77
2023/08/26 00:35:14;;;;;;;;;;;;;;;21.37;57.11;100844.94;4835696;29;125522;-77
2023/08/26 00:37:42;;;;;;;;;;;;;;;21.34;57.09;100839.81;4830534;29;123046;-77
2023/08/26 00:40:09;;;;;;;;;;;;;;;21.32;57.09;100841.78;4835779;29;119271;-77
2023/08/26 00:42:36;;;;;;;;;;;;;;;21.30;57.23;100849.16;4834588;29;117830;-77
2023/08/26 00:45:05;;;;;;;;;;;;;;;21.28;57.19;100840.38;4833870;29;123124;-77
2023/08/26 00:47:31;;;;;;;;;;;;;;;21.26;57.21;100858.50;4833930;29;123384;-77
2023/08/26 00:49:58;;;;;;;;;;;;;;;21.24;57.25;100855.97;4847236;29;122093;-77
2023/08/26 00:52:27;;;;;;;;;;;;;;;21.22;57.17;100849.00;4832025;29;120549;-77
2023/08/26 00:54:54;;;;;;;;;;;;;;;21.19;57.19;100848.31;4833930;29;123715;-77
2023/08/26 00:57:21;;;;;;;;;;;;;;;21.17;57.18;100850.28;4832459;29;125918;-77
2023/08/26 00:59:49;;;;;;;;;;;;;;;21.13;57.06;100851.53;4831617;29;122766;-77
2023/08/26 01:02:16;;;;;;;;;;;;;;;21.04;57.04;100855.06;4831038;29;118009;-77
2023/08/26 01:04:44;;;;;;;;;;;;;;;20.95;56.97;100855.88;4828841;29;124303;-77
2023/08/26 01:07:12;;;;;;;;;;;;;;;20.86;56.97;100860.22;4828568;29;123983;-77
2023/08/26 01:09:39;;;;;;;;;;;;;;;20.79;57.01;100859.94;4834835;29;119166;-77
2023/08/26 01:12:15;;;;;;;;;;;;;;;20.73;57.12;100868.53;4831097;29;118192;-77
2023/08/26 01:14:49;;;;;;;;;;;;;;;20.68;57.06;100869.91;4816990;29;124310;-77
2023/08/26 01:17:17;;;;;;;;;;;;;;;20.60;57.14;100868.75;4833665;29;123957;-77
2023/08/26 01:19:44;;;;;;;;;;;;;;;20.54;57.15;100868.41;4823059;29;119255;-77
2023/08/26 01:22:12;;;;;;;;;;;;;;;20.48;57.03;100860.88;4845965;29;118292;-77
2023/08/26 01:24:40;;;;;;;;;;;;;;;20.40;56.96;100865.06;4830164;29;125399;-77
2023/08/26 01:27:07;;;;;;;;;;;;;;;20.35;57.13;100861.94;4834013;29;123925;-77
2023/08/26 01:29:35;;;;;;;;;;;;;;;20.31;56.99;100863.19;4833951;29;119535;-77
2023/08/26 01:32:15;;;;;;;;;;;;;;;20.26;57.15;100862.72;4833282;29;116711;-77
2023/08/26 01:34:44;;;;;;;;;;;;;;;20.20;57.19;100874.00;4833724;29;122430;-77
2023/08/26 01:37:11;;;;;;;;;;;;;;;20.14;57.08;100866.47;4834573;29;126957;-77
2023/08/26 01:39:39;;;;;;;;;;;;;;;20.09;57.19;100868.69;4833096;29;119884;-77
2023/08/26 01:42:07;;;;;;;;;;;;;;;20.05;57.17;100872.63;4831310;29;119052;-77
2023/08/26 01:44:34;;;;;;;;;;;;;;;19.99;57.17;100880.22;4833776;29;123859;-77
2023/08/26 01:47:04;;;;;;;;;;;;;;;19.93;57.18;100870.00;4832913;29;123615;-77
2023/08/26 01:49:30;;;;;;;;;;;;;;;19.89;57.17;100868.53;4832148;29;118446;-77
2023/08/26 01:51:57;;;;;;;;;;;;;;;19.84;57.14;100876.13;4849062;29;118181;-77
2023/08/26 01:54:24;;;;;;;;;;;;;;;19.80;57.10;100874.69;4847847;29;122818;-77
2023/08/26 01:56:52;;;;;;;;;;;;;;;19.75;57.11;100876.91;4833319;29;124425;-76
2023/08/26 01:59:19;;;;;;;;;;;;;;;19.69;57.03;100877.38;4831286;29;118367;-76
2023/08/26 02:01:46;;;;;;;;;;;;;;;19.61;57.03;100875.34;4817014;29;118624;-77
2023/08/26 02:04:13;;;;;;;;;;;;;;;19.54;57.01;100874.97;4833090;29;125343;-77
2023/08/26 02:06:42;;;;;;;;;;;;;;;19.49;57.01;100871.81;4831946;29;124827;-76
2023/08/26 02:09:09;;;;;;;;;;;;;;;19.45;57.06;100870.34;4831012;29;118600;-77
2023/08/26 02:11:35;;;;;;;;;;;;;;;19.40;56.99;100872.56;4847506;29;117641;-76
2023/08/26 02:14:02;;;;;;;;;;;;;;;19.34;57.02;100875.75;4832281;29;123777;-76
2023/08/26 02:16:29;;;;;;;;;;;;;;;19.26;57.01;100871.84;4816439;29;122894;-77
2023/08/26 02:18:56;;;;;;;;;;;;;;;19.19;57.20;100881.41;4834440;29;119496;-76
2023/08/26 02:21:23;;;;;;;;;;;;;;;19.14;57.04;100878.25;4830875;29;118375;-77
2023/08/26 02:23:50;;;;;;;;;;;;;;;19.09;57.12;100869.69;4822289;29;123894;-76
2023/08/26 02:26:17;;;;;;;;;;;;;;;19.05;57.06;100874.44;4833936;29;123998;-76
2023/08/26 02:28:44;;;;;;;;;;;;;;;19.02;57.17;100868.47;4828803;29;119824;-77
2023/08/26 02:31:11;;;;;;;;;;;;;;;18.98;57.21;100872.38;4846706;29;118622;-77
2023/08/26 02:33:38;;;;;;;;;;;;;;;18.95;57.15;100869.94;4814059;29;123318;-77
2023/08/26 02:36:05;;;;;;;;;;;;;;;18.88;57.01;100869.59;4825086;29;124301;-76
2023/08/26 02:38:32;;;;;;;;;;;;;;;18.81;57.03;100877.25;4828721;29;116845;-77
2023/08/26 02:41:00;;;;;;;;;;;;;;;18.76;57.16;100868.72;4832972;29;117904;-77
2023/08/26 02:43:27;;;;;;;;;;;;;;;18.71;57.25;100870.91;4836367;29;124141;-76
2023/08/26 02:45:54;;;;;;;;;;;;;;;18.66;57.11;100875.75;4832649;29;123301;-76
2023/08/26 02:48:22;;;;;;;;;;;;;;;18.63;57.19;100863.44;4831890;29;119463;-76
2023/08/26 02:50:55;;;;;;;;;;;;;;;18.59;57.28;100877.22;4831174;29;118873;-76
2023/08/26 02:53:24;;;;;;;;;;;;;;;18.55;57.32;100881.13;4831421;29;124444;-77
2023/08/26 02:55:51;;;;;;;;;;;;;;;18.51;57.23;100885.84;4832875;29;124548;-76
2023/08/26 02:58:18;;;;;;;;;;;;;;;18.49;57.18;100883.28;4832178;29;118415;-76
2023/08/26 03:00:46;;;;;;;;;;;;;;;18.46;57.43;100883.53;4833771;29;119423;-76
2023/08/26 03:03:14;;;;;;;;;;;;;;;18.46;57.43;100888.91;4817398;29;123849;-77
2023/08/26 03:05:41;;;;;;;;;;;;;;;18.45;57.40;100892.56;4829519;29;123636;-76
2023/08/26 03:08:08;;;;;;;;;;;;;;;18.44;57.38;100885.50;4816603;29;118809;-77
2023/08/26 03:10:35;;;;;;;;;;;;;;;18.42;57.47;100886.56;4830963;28;118259;-76
2023/08/26 03:13:02;;;;;;;;;;;;;;;18.40;57.32;100894.75;4829845;29;124134;-76
2023/08/26 03:15:29;;;;;;;;;;;;;;;18.40;57.37;100896.56;4846616;29;123613;-76
2023/08/26 03:17:57;;;;;;;;;;;;;;;18.38;57.45;100891.31;4832270;29;120894;-77
2023/08/26 03:20:24;;;;;;;;;;;;;;;18.37;57.24;100894.97;4832257;29;118560;-76
2023/08/26 03:22:52;;;;;;;;;;;;;;;18.37;57.18;100899.50;4832329;29;123453;-76
2023/08/26 03:25:19;;;;;;;;;;;;;;;18.33;57.32;100893.50;4831971;29;123771;-77
2023/08/26 03:27:46;;;;;;;;;;;;;;;18.31;57.31;100898.16;4847940;29;118533;-76
2023/08/26 03:30:13;;;;;;;;;;;;;;;18.27;57.30;100899.31;4832045;29;119966;-76
2023/08/26 03:32:40;;;;;;;;;;;;;;;18.25;57.20;100903.97;4844112;29;123899;-76
2023/08/26 03:35:07;;;;;;;;;;;;;;;18.21;57.31;100897.13;4832278;29;123858;-77
2023/08/26 03:37:34;;;;;;;;;;;;;;;18.19;57.25;100901.75;4831676;29;118895;-76
2023/08/26 03:40:06;;;;;;;;;;;;;;;18.16;57.29;100891.25;4832325;29;117767;-76
2023/08/26 03:42:33;;;;;;;;;;;;;;;18.14;57.33;100898.56;4845936;29;122553;-76
2023/08/26 03:45:00;;;;;;;;;;;;;;;18.11;57.30;100898.81;4831392;29;123144;-76
2023/08/26 03:47:27;;;;;;;;;;;;;;;18.07;57.22;100904.41;4827861;29;118861;-76
2023/08/26 03:49:54;;;;;;;;;;;;;;;18.02;57.32;100893.16;4845796;29;118426;-76
2023/08/26 03:52:21;;;;;;;;;;;;;;;17.99;57.18;100890.72;4831944;29;124858;-76
2023/08/26 03:54:48;;;;;;;;;;;;;;;17.94;57.20;100898.25;4832983;29;124437;-76
2023/08/26 03:57:17;;;;;;;;;;;;;;;17.90;57.18;100902.13;4825614;29;118737;-76
2023/08/26 03:59:44;;;;;;;;;;;;;;;17.88;57.23;100898.72;4816801;29;118111;-76
2023/08/26 04:02:10;;;;;;;;;;;;;;;17.85;57.21;100904.28;4830659;29;124321;-76
2023/08/26 04:04:37;;;;;;;;;;;;;;;17.81;57.21;100900.13;4846453;29;124104;-76
2023/08/26 04:07:04;;;;;;;;;;;;;;;17.78;57.15;100897.66;4830741;29;121014;-76
2023/08/26 04:09:31;;;;;;;;;;;;;;;17.75;57.38;100896.06;4828267;29;119820;-76
2023/08/26 04:11:58;;;;;;;;;;;;;;;17.73;57.20;100905.19;4844550;29;123706;-76
2023/08/26 04:14:25;;;;;;;;;;;;;;;17.69;57.40;100900.06;4844514;28;124239;-76
2023/08/26 04:16:52;;;;;;;;;;;;;;;17.66;57.23;100900.28;4834107;29;118999;-76
2023/08/26 04:19:20;;;;;;;;;;;;;;;17.64;57.23;100912.94;4831923;29;119121;-76
2023/08/26 04:21:47;;;;;;;;;;;;;;;17.60;57.27;100911.44;4828324;29;123140;-76
2023/08/26 04:24:14;;;;;;;;;;;;;;;17.59;57.34;100917.75;4844892;28;124988;-76
2023/08/26 04:26:41;;;;;;;;;;;;;;;17.57;57.45;100910.81;4831248;29;119387;-76
2023/08/26 04:29:08;;;;;;;;;;;;;;;17.55;57.25;100924.31;4832142;29;119688;-76
2023/08/26 04:31:35;;;;;;;;;;;;;;;17.52;57.39;100913.84;4821940;29;123578;-77
2023/08/26 04:34:02;;;;;;;;;;;;;;;17.48;57.26;100923.91;4830355;29;123441;-76
2023/08/26 04:36:29;;;;;;;;;;;;;;;17.46;57.37;100930.34;4825113;29;120010;-76
2023/08/26 04:38:57;;;;;;;;;;;;;;;17.43;57.35;100925.22;4812486;29;117401;-76
2023/08/26 04:41:24;;;;;;;;;;;;;;;17.41;57.38;100924.47;4828493;29;125264;-76
2023/08/26 04:43:52;;;;;;;;;;;;;;;17.38;57.40;100930.03;4837268;28;124330;-76
2023/08/26 04:46:20;;;;;;;;;;;;;;;17.36;57.50;100923.94;4829989;29;119337;-76
2023/08/26 04:48:50;;;;;;;;;;;;;;;17.34;57.36;100936.59;4829529;29;118012;-76
2023/08/26 04:51:17;;;;;;;;;;;;;;;17.31;57.41;100933.19;4828787;29;124097;-76
2023/08/26 04:53:44;;;;;;;;;;;;;;;17.28;57.30;100933.38;4831100;29;122816;-76
2023/08/26 04:56:11;;;;;;;;;;;;;;;17.25;57.42;100944.34;4815553;29;121127;-76
2023/08/26 04:58:38;;;;;;;;;;;;;;;17.23;57.31;100946.22;4824919;29;120501;-76
2023/08/26 05:01:05;;;;;;;;;;;;;;;17.23;57.67;100940.88;4830940;29;124154;-76
2023/08/26 05:03:33;;;;;;;;;;;;;;;17.22;57.44;100955.25;4848759;29;124364;-76
2023/08/26 05:06:00;;;;;;;;;;;;;;;17.22;57.68;100971.31;4834234;29;118303;-76
2023/08/26 05:08:27;;;;;;;;;;;;;;;17.20;57.35;100962.53;4818165;29;120772;-76
2023/08/26 05:10:54;;;;;;;;;;;;;;;17.19;57.60;100976.88;4846897;28;123344;-76
2023/08/26 05:13:21;;;;;;;;;;;;;;;17.20;57.45;100973.25;4834683;29;123352;-76
2023/08/26 05:15:48;;;;;;;;;;;;;;;17.20;57.73;100972.38;4834669;29;119490;-76
2023/08/26 05:18:16;;;;;;;;;;;;;;;17.20;57.51;100975.91;4818548;29;119116;-76
2023/08/26 05:20:44;;;;;;;;;;;;;;;17.20;57.46;100970.56;4832752;29;123202;-76
2023/08/26 05:23:12;;;;;;;;;;;;;;;17.20;57.63;100975.06;4833662;28;123792;-76
2023/08/26 05:25:39;;;;;;;;;;;;;;;17.20;57.52;100973.25;4833681;29;119156;-76
2023/08/26 05:28:06;;;;;;;;;;;;;;;17.22;57.64;100976.66;4833864;29;118689;-76
2023/08/26 05:30:33;;;;;;;;;;;;;;;17.23;57.51;100978.34;4833944;29;124163;-75
2023/08/26 05:33:01;;;;;;;;;;;;;;;17.24;57.73;100985.44;4834026;29;123969;-75
2023/08/26 05:35:28;;;;;;;;;;;;;;;17.24;57.69;100985.44;4823582;29;120119;-75
2023/08/26 05:37:56;;;;;;;;;;;;;;;17.26;57.59;100988.84;4846656;28;118006;-75
2023/08/26 05:40:28;;;;;;;;;;;;;;;17.28;57.70;100992.28;4830869;29;122501;-75
2023/08/26 05:42:58;;;;;;;;;;;;;;;17.30;57.71;100989.50;4825406;29;123871;-75
2023/08/26 05:45:25;;;;;;;;;;;;;;;17.32;57.56;100993.75;4833517;29;119553;-75
2023/08/26 05:47:53;;;;;;;;;;;;;;;17.35;57.55;100978.44;4833049;29;118887;-75
2023/08/26 05:50:20;;;;;;;;;;;;;;;17.37;57.51;100979.22;4832550;29;123610;-75
2023/08/26 05:52:47;;;;;;;;;;;;;;;17.39;57.65;100977.28;4833089;29;123244;-75
2023/08/26 05:55:14;;;;;;;;;;;;;;;17.42;57.57;100966.34;4833809;29;120047;-75
2023/08/26 05:57:41;;;;;;;;;;;;;;;17.46;57.59;100973.19;4848357;29;118115;-75
2023/08/26 06:00:09;;;;;;;;;;;;;;;17.49;57.70;100967.63;4826662;29;124692;-75
2023/08/26 06:02:42;;;;;;;;;;;;;;;17.53;57.54;100963.75;4833331;29;124783;-75
2023/08/26 06:05:10;;;;;;;;;;;;;;;17.57;57.57;100964.38;4830685;29;119142;-75
2023/08/26 06:07:38;;;;;;;;;;;;;;;17.60;57.56;100969.53;4832879;29;118955;-75
2023/08/26 06:10:05;;;;;;;;;;;;;;;17.64;57.64;100971.84;4813856;29;124202;-75
2023/08/26 06:12:32;;;;;;;;;;;;;;;17.70;57.57;100963.34;4830413;29;123155;-76
2023/08/26 06:15:00;;;;;;;;;;;;;;;17.75;57.66;100962.19;4832046;29;119930;-75
2023/08/26 06:17:28;;;;;;;;;;;;;;;17.79;57.64;100947.59;4833754;29;117788;-75
2023/08/26 06:19:55;;;;;;;;;;;;;;;17.82;57.64;100963.44;4831369;29;124235;-75
2023/08/26 06:22:22;;;;;;;;;;;;;;;17.88;57.68;100968.38;4837281;29;122396;-75
2023/08/26 06:24:49;;;;;;;;;;;;;;;17.92;57.59;100964.50;4837328;29;119906;-76
2023/08/26 06:27:16;;;;;;;;;;;;;;;17.98;57.85;100969.41;4831754;29;119760;-75
2023/08/26 06:29:44;;;;;;;;;;;;;;;18.05;57.97;100964.47;4843845;29;126317;-76
2023/08/26 06:32:11;;;;;;;;;;;;;;;18.16;57.87;100971.66;4834044;29;123681;-75
2023/08/26 06:34:38;;;;;;;;;;;;;;;18.24;57.73;100964.78;4845747;29;120967;-76
2023/08/26 06:37:06;;;;;;;;;;;;;;;18.33;57.70;100973.97;4839737;29;119807;-76
2023/08/26 06:39:33;;;;;;;;;;;;;;;18.41;57.65;100966.19;4831213;29;124252;-76
2023/08/26 06:42:00;;;;;;;;;;;;;;;18.48;57.84;100967.44;4826735;29;124433;-76
2023/08/26 06:44:28;;;;;;;;;;;;;;;18.57;57.82;100967.69;4834050;29;122026;-76
2023/08/26 06:46:56;;;;;;;;;;;;;;;18.65;57.83;100962.59;4831883;29;118695;-75
2023/08/26 06:49:23;;;;;;;;;;;;;;;18.74;57.74;100961.88;4834436;29;123952;-75
2023/08/26 06:51:50;;;;;;;;;;;;;;;18.83;57.82;100966.53;4831261;29;123067;-76
2023/08/26 06:54:16;;;;;;;;;;;;;;;18.95;57.91;100970.13;4833758;29;119510;-75
2023/08/26 06:56:44;;;;;;;;;;;;;;;19.07;58.03;100968.28;4832106;29;118585;-76
2023/08/26 06:59:11;;;;;;;;;;;;;;;19.19;57.77;100978.06;4832527;29;124392;-76
2023/08/26 07:01:38;;;;;;;;;;;;;;;19.34;57.85;100967.06;4832676;29;125127;-76
2023/08/26 07:04:05;;;;;;;;;;;;;;;19.49;57.83;100976.56;4845564;28;118719;-75
2023/08/26 07:06:33;;;;;;;;;;;;;;;19.65;57.83;100969.00;4832395;29;118715;-75
2023/08/26 07:09:00;;;;;;;;;;;;;;;19.78;57.81;100973.41;4830937;29;124210;-75
2023/08/26 07:11:27;;;;;;;;;;;;;;;19.87;57.51;100978.00;4832746;29;123360;-75
2023/08/26 07:13:54;;;;;;;;;;;;;;;19.94;57.59;100973.84;4832049;29;120121;-76
2023/08/26 07:16:21;;;;;;;;;;;;;;;20.00;57.51;100962.59;4835287;29;119161;-75
2023/08/26 07:18:48;;;;;;;;;;;;;;;20.09;57.53;100960.09;4832488;29;124513;-76
2023/08/26 07:21:15;;;;;;;;;;;;;;;20.20;57.62;100962.75;4848163;29;124670;-76
2023/08/26 07:23:42;;;;;;;;;;;;;;;20.30;57.71;100969.06;4833266;29;120548;-75
2023/08/26 07:26:09;;;;;;;;;;;;;;;20.45;57.73;100968.75;4831338;29;120351;-76
2023/08/26 07:28:36;;;;;;;;;;;;;;;20.59;57.63;100965.75;4832392;29;123226;-76
2023/08/26 07:31:04;;;;;;;;;;;;;;;20.71;57.53;100972.78;4834022;29;125051;-75
2023/08/26 07:33:31;;;;;;;;;;;;;;;20.80;57.38;100972.00;4823723;29;119640;-75
2023/08/26 07:36:16;;;;;;;;;;;;;;;20.89;57.42;100964.09;4830271;29;118338;-75
2023/08/26 07:38:44;;;;;;;;;;;;;;;21.01;57.39;100968.44;4846350;29;124178;-75
2023/08/26 07:41:11;;;;;;;;;;;;;;;21.11;57.38;100963.94;4833461;29;124029;-76
2023/08/26 07:43:38;;;;;;;;;;;;;;;21.22;57.35;100970.22;4834382;29;119862;-75
2023/08/26 07:46:05;;;;;;;;;;;;;;;21.33;57.24;100970.13;4834599;29;118371;-75
2023/08/26 07:48:35;;;;;;;;;;;;;;;21.44;57.18;100969.19;4829149;29;125180;-76
2023/08/26 07:51:04;;;;;;;;;;;;;;;21.49;57.12;100973.22;4835872;28;123355;-76
2023/08/26 07:53:31;;;;;;;;;;;;;;;21.58;56.99;100977.75;4836253;29;120450;-76
2023/08/26 07:55:58;;;;;;;;;;;;;;;21.63;57.00;100973.81;4835692;29;117673;-76
2023/08/26 07:58:24;;;;;;;;;;;;;;;21.68;56.86;100976.94;4837817;29;125118;-76
2023/08/26 08:00:51;;;;;;;;;;;;;;;21.77;57.07;100976.09;4853497;29;124110;-76
2023/08/26 08:03:18;;;;;;;;;;;;;;;21.90;57.26;100982.09;4838728;29;118738;-76
2023/08/26 08:05:45;;;;;;;;;;;;;;;22.03;57.08;100983.69;4836784;29;119055;-76
2023/08/26 08:08:12;;;;;;;;;;;;;;;22.15;56.91;100979.84;4848772;29;124185;-76
2023/08/26 08:10:39;;;;;;;;;;;;;;;22.22;56.94;100985.53;4834201;29;124436;-76
2023/08/26 08:13:09;;;;;;;;;;;;;;;22.31;56.92;100980.16;4847051;29;119989;-76
2023/08/26 08:15:36;;;;;;;;;;;;;;;22.40;56.83;100983.03;4833401;29;120429;-76
2023/08/26 08:18:03;;;;;;;;;;;;;;;22.47;56.68;100978.72;4836151;29;125176;-76
2023/08/26 08:20:30;;;;;;;;;;;;;;;22.53;56.63;100983.59;4836696;29;123960;-76
2023/08/26 08:22:57;;;;;;;;;;;;;;;22.59;56.69;100977.59;4835721;29;118409;-76
2023/08/26 08:25:25;;;;;;;;;;;;;;;22.67;56.81;100977.72;4827285;29;119630;-76
2023/08/26 08:27:52;;;;;;;;;;;;;;;22.78;56.81;100981.28;4833191;29;124274;-76
2023/08/26 08:30:19;;;;;;;;;;;;;;;22.85;56.56;100976.97;4833341;29;124884;-76
2023/08/26 08:32:46;;;;;;;;;;;;;;;22.88;56.37;100987.47;4832449;29;119168;-76
2023/08/26 08:35:13;;;;;;;;;;;;;;;22.93;56.38;100985.22;4832796;29;120130;-76
2023/08/26 08:37:40;;;;;;;;;;;;;;;22.96;56.31;100990.28;4833763;29;124670;-76
2023/08/26 08:40:07;;;;;;;;;;;;;;;23.01;56.45;100988.00;4836155;29;123570;-76
2023/08/26 08:42:34;;;;;;;;;;;;;;;23.09;56.46;100990.88;4835835;29;118901;-75
2023/08/26 08:45:05;;;;;;;;;;;;;;;23.16;56.42;100990.28;4835834;29;118033;-76
2023/08/26 08:47:33;;;;;;;;;;;;;;;23.23;56.12;100983.31;4818807;29;123738;-76
2023/08/26 08:50:00;;;;;;;;;;;;;;;23.27;56.21;100979.28;4832109;29;124570;-76
2023/08/26 08:52:28;;;;;;;;;;;;;;;23.32;56.23;100979.72;4834013;29;119757;-75
2023/08/26 08:54:55;;;;;;;;;;;;;;;23.38;56.26;100979.09;4833113;29;118681;-75
2023/08/26 08:57:23;;;;;;;;;;;;;;;23.44;56.13;100983.91;4833188;29;124742;-75
2023/08/26 08:59:51;;;;;;;;;;;;;;;23.50;56.00;100977.03;4818602;29;124338;-76
2023/08/26 09:02:18;;;;;;;;;;;;;;;23.55;55.93;100979.31;4833098;29;120254;-76
2023/08/26 09:04:45;;;;;;;;;;;;;;;23.63;56.05;100982.09;4831503;29;119581;-76
2023/08/26 09:07:13;;;;;;;;;;;;;;;23.74;56.20;100983.75;4830597;29;123861;-76
2023/08/26 09:09:40;;;;;;;;;;;;;;;23.84;56.04;100980.00;4834838;29;124247;-76
2023/08/26 09:12:26;;;;;;;;;;;;;;;23.97;56.18;100984.22;4834866;28;119471;-76
2023/08/26 09:14:53;;;;;;;;;;;;;;;24.09;56.00;100982.97;4834412;29;119089;-76
2023/08/26 09:17:20;;;;;;;;;;;;;;;24.21;56.24;100987.16;4832177;29;124483;-76
2023/08/26 09:19:52;;;;;;;;;;;;;;;24.35;55.81;100987.59;4834805;29;124541;-76
2023/08/26 09:22:20;;;;;;;;;;;;;;;24.45;55.86;100982.97;4834008;29;120151;-76
2023/08/26 09:24:47;;;;;;;;;;;;;;;24.51;55.78;100976.94;4834071;29;118985;-76
2023/08/26 09:27:15;;;;;;;;;;;;;;;24.60;55.59;100985.97;4831490;29;124097;-76
2023/08/26 09:29:43;;;;;;;;;;;;;;;24.66;55.44;100991.63;4833632;29;122785;-76
2023/08/26 09:32:10;;;;;;;;;;;;;;;24.72;55.31;101005.56;4835568;29;119395;-76
2023/08/26 09:34:37;;;;;;;;;;;;;;;24.73;55.31;100996.41;4834673;29;118373;-76
2023/08/26 09:37:07;;;;;;;;;;;;;;;24.70;55.05;100991.31;4834971;29;124344;-76
2023/08/26 09:39:43;;;;;;;;;;;;;;;24.74;55.11;100992.72;4832020;29;125787;-76
2023/08/26 09:42:10;;;;;;;;;;;;;;;24.80;55.11;100992.06;4834056;29;119571;-76
2023/08/26 09:44:37;;;;;;;;;;;;;;;24.83;55.26;100991.75;4833990;29;118245;-76
2023/08/26 09:47:04;;;;;;;;;;;;;;;24.82;55.01;100995.47;4835426;29;123725;-76
2023/08/26 09:49:34;;;;;;;;;;;;;;;24.85;55.05;100995.16;4831427;29;124061;-75
2023/08/26 09:52:01;;;;;;;;;;;;;;;24.85;54.92;100995.16;4833140;29;119795;-76
2023/08/26 09:54:28;;;;;;;;;;;;;;;24.85;54.93;100995.16;4830171;29;119629;-76
2023/08/26 09:56:55;;;;;;;;;;;;;;;24.88;54.78;101000.25;4831741;29;124058;-76
2023/08/26 09:59:22;;;;;;;;;;;;;;;24.91;54.77;100994.50;4847975;28;123012;-76
2023/08/26 10:01:49;;;;;;;;;;;;;;;24.93;55.21;101003.31;4832610;29;119923;-76
2023/08/26 10:04:20;;;;;;;;;;;;;;;24.96;54.85;100997.59;4832370;29;118672;-76
2023/08/26 10:06:53;;;;;;;;;;;;;;;25.00;54.76;101004.41;4844504;29;124001;-76
2023/08/26 10:09:28;;;;;;;;;;;;;;;25.05;54.70;101002.06;4831231;29;124965;-76
2023/08/26 10:11:55;;;;;;;;;;;;;;;25.12;54.62;101001.41;4828711;29;119876;-78
2023/08/26 10:14:27;;;;;;;;;;;;;;;25.19;55.01;100991.63;4834376;29;118222;-76
2023/08/26 10:16:56;;;;;;;;;;;;;;;25.24;54.86;100989.31;4824619;29;124155;-76
2023/08/26 10:19:24;;;;;;;;;;;;;;;25.28;54.45;100990.72;4826231;29;123980;-77
2023/08/26 10:21:52;;;;;;;;;;;;;;;25.32;54.66;100988.53;4825495;29;119956;-76
2023/08/26 10:24:19;;;;;;;;;;;;;;;25.35;54.61;100991.72;4826943;29;119060;-75
2023/08/26 10:26:47;;;;;;;;;;;;;;;25.40;54.64;101000.25;4833379;29;124146;-76
2023/08/26 10:29:14;;;;;;;;;;;;;;;25.45;54.79;100991.63;4831241;29;124805;-75
2023/08/26 10:31:45;;;;;;;;;;;;;;;25.52;54.50;100991.81;4830916;29;119533;-76
2023/08/26 10:34:13;;;;;;;;;;;;;;;25.63;54.69;100988.81;4848319;29;117765;-75
2023/08/26 10:36:41;;;;;;;;;;;;;;;25.75;54.50;101003.78;4832299;29;124397;-75
2023/08/26 10:39:16;;;;;;;;;;;;;;;25.81;54.43;101000.41;4833767;29;123883;-76
2023/08/26 10:42:01;;;;;;;;;;;;;;;25.86;54.40;100999.06;4822307;29;120118;-76
2023/08/26 10:44:36;;;;;;;;;;;;;;;25.79;54.02;100988.88;4845173;28;119974;-77
2023/08/26 10:47:03;;;;;;;;;;;;;;;25.76;54.06;101000.03;4831613;29;123246;-76
2023/08/26 10:49:30;;;;;;;;;;;;;;;25.70;53.74;100992.56;4833657;29;124074;-76
2023/08/26 10:52:07;;;;;;;;;;;;;;;25.61;53.57;100996.25;4825706;29;119454;-77
2023/08/26 10:54:35;;;;;;;;;;;;;;;25.51;53.85;100995.56;4830599;29;118454;-77
2023/08/26 10:57:08;;;;;;;;;;;;;;;25.41;53.46;100995.66;4829285;29;124422;-76
2023/08/26 10:59:41;;;;;;;;;;;;;;;25.31;53.55;100990.38;4847688;29;125322;-76
2023/08/26 11:02:09;;;;;;;;;;;;;;;25.26;53.45;100976.47;4832296;29;119650;-75
2023/08/26 11:04:45;;;;;;;;;;;;;;;25.25;53.67;100982.88;4831396;29;117794;-76
2023/08/26 11:07:16;;;;;;;;;;;;;;;25.27;53.74;100975.44;4830308;29;126417;-76
2023/08/26 11:09:43;;;;;;;;;;;;;;;25.34;53.77;100984.63;4830977;29;124310;-76
2023/08/26 11:12:28;;;;;;;;;;;;;;;25.40;53.98;100978.53;4832958;29;119413;-77
2023/08/26 11:15:08;;;;;;;;;;;;;;;25.47;53.76;100977.88;4827961;29;118288;-77
2023/08/26 11:17:36;;;;;;;;;;;;;;;25.55;54.07;100975.22;4827972;29;124648;-76
2023/08/26 11:20:08;;;;;;;;;;;;;;;25.65;54.16;100970.50;4831324;29;124547;-77
2023/08/26 11:22:35;;;;;;;;;;;;;;;25.76;53.82;100981.03;4833014;29;119491;-77
2023/08/26 11:25:03;;;;;;;;;;;;;;;25.78;53.79;100975.47;4834380;29;118750;-77
2023/08/26 11:27:29;;;;;;;;;;;;;;;25.76;53.36;100978.34;4832682;29;124886;-77
2023/08/26 11:29:56;;;;;;;;;;;;;;;25.71;53.14;100980.72;4833517;29;124506;-77
2023/08/26 11:32:28;;;;;;;;;;;;;;;25.66;53.30;100977.63;4822920;29;122352;-77
2023/08/26 11:34:55;;;;;;;;;;;;;;;25.61;53.24;100969.13;4830618;29;119290;-77
2023/08/26 11:37:22;;;;;;;;;;;;;;;25.62;53.22;100965.41;4829909;29;124998;-77
2023/08/26 11:39:50;;;;;;;;;;;;;;;25.68;53.37;100975.59;4830097;29;122983;-77
2023/08/26 11:42:17;;;;;;;;;;;;;;;25.77;53.74;100971.06;4831440;29;121326;-77
2023/08/26 11:44:46;;;;;;;;;;;;;;;25.91;53.80;100969.56;4831721;29;121142;-76
2023/08/26 11:47:13;;;;;;;;;;;;;;;26.04;53.52;100967.25;4843134;29;123256;-77
2023/08/26 11:49:40;;;;;;;;;;;;;;;26.17;53.53;100964.88;4832443;29;123790;-77
2023/08/26 11:52:07;;;;;;;;;;;;;;;26.31;53.30;100960.63;4831471;29;119356;-76
2023/08/26 11:54:34;;;;;;;;;;;;;;;26.40;53.14;100964.22;4831778;29;119400;-77
2023/08/26 11:57:01;;;;;;;;;;;;;;;26.46;53.26;100952.66;4828321;29;124472;-77
2023/08/26 11:59:36;;;;;;;;;;;;;;;26.53;52.99;100964.53;4830147;29;123767;-77
2023/08/26 12:02:22;;;;;;;;;;;;;;;26.64;53.17;100970.69;4831527;29;119674;-76
2023/08/26 12:04:56;;;;;;;;;;;;;;;26.76;53.01;100969.31;4828304;29;119133;-77
2023/08/26 12:07:24;;;;;;;;;;;;;;;26.87;53.15;100960.78;4827495;29;124490;-77
2023/08/26 12:09:52;;;;;;;;;;;;;;;26.92;52.96;100969.28;4830718;29;125188;-77
2023/08/26 12:12:22;;;;;;;;;;;;;;;26.94;52.91;100967.22;4831657;29;119848;-77
2023/08/26 12:14:49;;;;;;;;;;;;;;;26.96;52.65;100969.78;4832469;29;118862;-77
2023/08/26 12:17:16;;;;;;;;;;;;;;;26.98;52.41;100974.00;4829935;29;125058;-77
2023/08/26 12:19:43;;;;;;;;;;;;;;;27.04;52.78;100963.47;4830803;29;123603;-78
2023/08/26 12:22:11;;;;;;;;;;;;;;;27.08;52.51;100972.97;4830497;29;120830;-77
2023/08/26 12:24:38;;;;;;;;;;;;;;;27.11;52.27;100975.34;4831200;29;119916;-77
2023/08/26 12:27:09;;;;;;;;;;;;;;;27.11;52.56;100968.03;4831533;29;124695;-76
2023/08/26 12:29:36;;;;;;;;;;;;;;;27.12;52.25;100963.44;4829717;29;123797;-77
2023/08/26 12:32:04;;;;;;;;;;;;;;;27.17;52.19;100961.88;4824135;29;119838;-77